Terminal Aerodrome Forecast
Issued by NWS

Home | Current Version | Previous Version | Text Only | Print | Product List | Glossary On
Versions: 1 2 3 4 5 6 7 8 9 10 11 12 13 14 15 16 17 18 19 20 21 22 23 24 25 26
438
FTUS44 KOHX 241602 AAA
TAFCKV
TAF AMD
KCKV 241602Z 2416/2512 07004KT P6SM OVC018
     FM241900 14004KT P6SM SKC
     FM250800 18010KT P6SM BKN040=

USA.gov is the U.S. government's official web portal to all federal, state and local government web resources and services.